Time;durP1;ratioP1;P1;durP2;ratioP2;P2;SDS_P1;SDS_P2;PMS_P1;PMS_P2;Temp;Humidity;BMP_temperature;BMP_pressure;BME280_temperature;BME280_humidity;BME280_pressure;Samples;Min_cycle;Max_cycle;Signal;HPM_P1;HPM_P2
2022/08/01 00:02:13;;;;;;;3.92;1.80;;;;;20.70;101240.00;;;;10452060;28;20221;-78
2022/08/01 00:07:15;;;;;;;5.78;2.40;;;;;20.70;101242.00;;;;10422686;28;20201;-77
2022/08/01 00:12:17;;;;;;;5.38;2.17;;;;;20.70;101229.00;;;;10390696;28;20225;-78
2022/08/01 00:17:19;;;;;;;4.20;2.40;;;;;20.70;101237.00;;;;10423106;28;20214;-78
2022/08/01 00:22:21;;;;;;;5.28;3.30;;;;;20.70;101239.00;;;;10422739;28;20186;-78
2022/08/01 00:27:23;;;;;;;6.68;4.07;;;;;20.60;101232.00;;;;10438749;28;20201;-77
2022/08/01 00:32:25;;;;;;;7.82;3.67;;;;;20.60;101240.00;;;;10452727;28;20206;-78
2022/08/01 00:37:27;;;;;;;5.38;3.33;;;;;20.50;101239.00;;;;10463491;28;20217;-78
2022/08/01 00:42:29;;;;;;;7.20;3.05;;;;;20.40;101227.00;;;;10438815;28;20191;-78
2022/08/01 00:47:31;;;;;;;8.50;4.50;;;;;20.40;101230.00;;;;10431286;28;20193;-78
2022/08/01 00:52:34;;;;;;;9.75;4.57;;;;;20.30;101222.00;;;;10432279;28;20695;-78
2022/08/01 00:57:36;;;;;;;7.15;4.30;;;;;20.30;101233.00;;;;10479868;28;20272;-77
2022/08/01 01:02:58;;;;;;;7.05;4.32;;;;;20.30;101226.00;;;;10484718;28;20214;-77
2022/08/01 01:08:07;;;;;;;5.43;3.90;;;;;20.30;101223.00;;;;10476464;28;20204;-78
2022/08/01 01:13:13;;;;;;;6.75;4.00;;;;;20.30;101228.00;;;;10478939;28;20276;-78
2022/08/01 01:18:25;;;;;;;7.65;3.83;;;;;20.30;101229.00;;;;10446187;28;20192;-77
2022/08/01 01:23:54;;;;;;;6.90;4.20;;;;;20.30;101223.00;;;;10446501;28;20186;-77
2022/08/01 01:29:06;;;;;;;6.88;3.85;;;;;20.30;101226.00;;;;10436128;28;20607;-78
2022/08/01 01:34:12;;;;;;;5.43;4.10;;;;;20.30;101222.00;;;;10424137;28;20679;-77
2022/08/01 01:39:16;;;;;;;8.88;4.97;;;;;20.30;101219.00;;;;10466345;28;20193;-78
2022/08/01 01:44:18;;;;;;;6.20;4.60;;;;;20.30;101219.00;;;;10444693;28;20186;-77
2022/08/01 01:49:28;;;;;;;7.90;5.78;;;;;20.20;101221.00;;;;10444509;28;20206;-78
2022/08/01 01:54:34;;;;;;;10.13;6.35;;;;;20.10;101217.00;;;;10445004;28;20538;-78
2022/08/01 01:59:39;;;;;;;10.70;7.15;;;;;20.00;101214.00;;;;10478593;28;20178;-77
2022/08/01 02:04:43;;;;;;;9.50;7.82;;;;;20.00;101209.00;;;;10450130;28;20210;-77
2022/08/01 02:09:46;;;;;;;12.05;7.63;;;;;20.00;101209.00;;;;10420086;28;20569;-77
2022/08/01 02:14:51;;;;;;;9.20;7.43;;;;;20.00;101199.00;;;;10444798;28;20186;-77
2022/08/01 02:19:53;;;;;;;13.80;8.68;;;;;20.00;101205.00;;;;10411733;28;20200;-78
2022/08/01 02:25:17;;;;;;;13.63;9.23;;;;;19.90;101201.00;;;;10444564;28;20198;-77
2022/08/01 02:30:19;;;;;;;15.82;8.98;;;;;19.80;101200.00;;;;10427762;28;20730;-77
2022/08/01 02:35:28;;;;;;;13.88;8.73;;;;;19.80;101204.00;;;;10433352;28;20206;-78
2022/08/01 02:40:33;;;;;;;13.80;9.60;;;;;19.80;101205.00;;;;10503184;28;20182;-78
2022/08/01 02:45:42;;;;;;;14.85;10.25;;;;;19.70;101206.00;;;;10468566;28;20194;-78
2022/08/01 02:50:47;;;;;;;19.38;9.65;;;;;19.60;101210.00;;;;10443579;28;20692;-77
2022/08/01 02:55:50;;;;;;;19.75;11.30;;;;;19.60;101211.00;;;;10427509;28;20688;-78
2022/08/01 03:00:53;;;;;;;20.10;11.38;;;;;19.60;101203.00;;;;10443205;28;20256;-77
2022/08/01 03:05:57;;;;;;;19.42;11.82;;;;;19.60;101207.00;;;;10432229;28;20217;-78
2022/08/01 03:11:01;;;;;;;24.08;13.02;;;;;19.40;101213.00;;;;10467695;28;20201;-78
2022/08/01 03:16:04;;;;;;;27.88;14.85;;;;;19.40;101211.00;;;;10467270;28;20248;-78
2022/08/01 03:21:08;;;;;;;26.23;15.13;;;;;19.20;101217.00;;;;10450048;28;20196;-78
2022/08/01 03:26:11;;;;;;;26.50;14.50;;;;;19.20;101228.00;;;;10484321;28;20202;-78
2022/08/01 03:31:14;;;;;;;24.63;14.25;;;;;19.20;101221.00;;;;10467787;28;20222;-78
2022/08/01 03:36:20;;;;;;;25.42;14.50;;;;;19.30;101230.00;;;;10467010;28;20244;-77
2022/08/01 03:41:26;;;;;;;25.67;15.80;;;;;19.30;101219.00;;;;10482991;28;20217;-78
2022/08/01 03:46:44;;;;;;;30.52;15.55;;;;;19.10;101221.00;;;;10439947;28;20224;-78
2022/08/01 03:51:49;;;;;;;24.88;15.20;;;;;19.00;101225.00;;;;10440846;28;20276;-78
2022/08/01 03:56:51;;;;;;;30.48;16.13;;;;;19.00;101226.00;;;;10392510;28;20198;-77
2022/08/01 04:01:57;;;;;;;27.00;16.40;;;;;18.90;101225.00;;;;10391548;28;20636;-78
2022/08/01 04:07:04;;;;;;;29.55;17.60;;;;;18.70;101227.00;;;;10462326;28;20564;-78
2022/08/01 04:12:06;;;;;;;28.65;16.25;;;;;18.70;101227.00;;;;10464324;28;20247;-78
2022/08/01 04:17:13;;;;;;;26.10;15.98;;;;;18.70;101220.00;;;;10432225;28;20579;-78
2022/08/01 04:22:15;;;;;;;26.15;16.65;;;;;18.60;101230.00;;;;10464235;28;20178;-78
2022/08/01 04:27:25;;;;;;;28.30;17.38;;;;;18.60;101239.00;;;;10447677;28;20217;-78
2022/08/01 04:32:49;;;;;;;25.48;17.42;;;;;18.60;101236.00;;;;10449198;28;20194;-78
2022/08/01 04:37:53;;;;;;;27.20;17.50;;;;;18.60;101236.00;;;;10463788;28;20697;-78
2022/08/01 04:42:55;;;;;;;26.33;17.80;;;;;18.70;101233.00;;;;10426056;28;20197;-78
2022/08/01 04:47:57;;;;;;;30.33;18.15;;;;;18.80;101234.00;;;;10441145;28;20218;-78
2022/08/01 04:53:02;;;;;;;25.55;18.33;;;;;18.80;101244.00;;;;10445982;28;20213;-78
2022/08/01 04:58:05;;;;;;;27.38;15.98;;;;;18.90;101246.00;;;;10445796;28;20235;-78
2022/08/01 05:03:07;;;;;;;24.38;16.10;;;;;19.00;101243.00;;;;10479159;28;20276;-78
2022/08/01 05:08:09;;;;;;;22.95;13.32;;;;;19.10;101240.00;;;;10446307;28;20247;-78
2022/08/01 05:13:11;;;;;;;17.20;11.98;;;;;19.10;101237.00;;;;10445776;28;20217;-78
2022/08/01 05:18:13;;;;;;;17.50;11.07;;;;;19.10;101243.00;;;;10461861;28;20197;-78
2022/08/01 05:23:15;;;;;;;13.25;9.85;;;;;19.20;101242.00;;;;10462197;28;20698;-78
2022/08/01 05:28:37;;;;;;;12.13;9.05;;;;;19.30;101243.00;;;;10448271;28;20192;-78
2022/08/01 05:33:39;;;;;;;13.95;8.07;;;;;19.40;101246.00;;;;10445463;28;20293;-78
2022/08/01 05:38:41;;;;;;;14.50;7.93;;;;;19.40;101252.00;;;;10445577;28;20652;-78
2022/08/01 05:43:43;;;;;;;12.25;8.48;;;;;19.60;101248.00;;;;10461449;28;20641;-77
2022/08/01 05:48:45;;;;;;;12.15;8.82;;;;;19.70;101246.00;;;;10445692;28;20209;-78
2022/08/01 05:53:47;;;;;;;12.18;7.00;;;;;19.80;101254.00;;;;10445309;28;20209;-78
2022/08/01 05:58:50;;;;;;;8.40;7.45;;;;;20.00;101259.00;;;;10478353;28;20190;-78
2022/08/01 06:03:54;;;;;;;12.30;7.82;;;;;20.00;101256.00;;;;10424579;28;20350;-78
2022/08/01 06:08:55;;;;;;;9.18;7.07;;;;;20.10;101266.00;;;;10430662;28;20189;-78
2022/08/01 06:13:57;;;;;;;7.78;6.57;;;;;20.30;101252.00;;;;10461546;28;20216;-79
2022/08/01 06:18:59;;;;;;;12.43;6.78;;;;;20.50;101253.00;;;;10419833;28;20210;-78
2022/08/01 06:24:01;;;;;;;10.13;7.28;;;;;20.60;101248.00;;;;10403665;28;20232;-78
2022/08/01 06:29:03;;;;;;;12.15;7.18;;;;;20.80;101247.00;;;;10417740;28;20202;-78
2022/08/01 06:34:05;;;;;;;10.07;7.95;;;;;21.20;101246.00;;;;10439059;28;20210;-78
2022/08/01 06:39:07;;;;;;;8.38;7.47;;;;;21.50;101253.00;;;;10436325;28;20601;-78
2022/08/01 06:44:09;;;;;;;7.68;6.50;;;;;21.30;101265.00;;;;10394498;28;20205;-78
2022/08/01 06:49:11;;;;;;;8.13;7.00;;;;;21.20;101272.00;;;;10493261;28;20650;-78
2022/08/01 06:54:14;;;;;;;7.78;7.00;;;;;22.10;101270.00;;;;10444018;28;20267;-78
2022/08/01 06:59:16;;;;;;;9.57;6.80;;;;;23.00;101278.00;;;;10483162;28;20242;-78
2022/08/01 07:04:18;;;;;;;8.30;6.97;;;;;22.60;101279.00;;;;10443014;28;20216;-78
2022/08/01 07:09:20;;;;;;;8.75;5.97;;;;;22.30;101281.00;;;;10449277;28;20564;-78
2022/08/01 07:14:22;;;;;;;6.97;6.28;;;;;22.40;101285.00;;;;10425275;28;20219;-78
2022/08/01 07:19:26;;;;;;;7.03;6.40;;;;;22.70;101292.00;;;;10424780;28;20190;-79
2022/08/01 07:24:29;;;;;;;7.65;6.90;;;;;23.60;101275.00;;;;10466774;28;20184;-78
2022/08/01 07:29:30;;;;;;;8.52;6.25;;;;;24.20;101284.00;;;;10465137;28;20675;-78
2022/08/01 07:34:32;;;;;;;5.10;4.47;;;;;24.20;101280.00;;;;10444015;28;20206;-78
2022/08/01 07:39:34;;;;;;;5.45;4.95;;;;;24.10;101277.00;;;;10457609;28;20670;-78
2022/08/01 07:44:36;;;;;;;5.47;4.97;;;;;25.00;101279.00;;;;10444162;28;20190;-78
2022/08/01 07:49:39;;;;;;;6.25;4.65;;;;;24.50;101295.00;;;;10464589;28;20201;-78
2022/08/01 07:54:42;;;;;;;3.85;3.38;;;;;23.80;101297.00;;;;10432923;28;20217;-78
2022/08/01 07:59:44;;;;;;;3.80;3.30;;;;;23.10;101299.00;;;;10481152;28;20195;-78
2022/08/01 08:04:45;;;;;;;4.00;3.10;;;;;23.20;101302.00;;;;10431297;28;20280;-78
2022/08/01 08:09:50;;;;;;;4.55;4.15;;;;;24.30;101293.00;;;;10449117;28;20228;-78
2022/08/01 08:14:52;;;;;;;5.45;4.20;;;;;25.30;101294.00;;;;10456547;28;20653;-78
2022/08/01 08:19:54;;;;;;;5.63;4.13;;;;;26.10;101285.00;;;;10464150;28;20657;-78
2022/08/01 08:24:56;;;;;;;4.75;3.83;;;;;27.10;101285.00;;;;10440476;28;20260;-78
2022/08/01 08:30:06;;;;;;;4.60;3.53;;;;;28.30;101290.00;;;;10431849;28;20740;-78
2022/08/01 08:35:08;;;;;;;4.35;3.83;;;;;27.60;101282.00;;;;10478818;28;20221;-78
2022/08/01 08:40:15;;;;;;;3.50;3.20;;;;;27.90;101294.00;;;;10464234;28;20194;-78
2022/08/01 08:45:17;;;;;;;3.42;3.13;;;;;27.30;101296.00;;;;10478061;28;20193;-78
2022/08/01 08:50:20;;;;;;;2.90;2.70;;;;;26.50;101305.00;;;;10462662;28;20263;-78
2022/08/01 08:55:23;;;;;;;2.42;2.00;;;;;26.70;101296.00;;;;10446772;28;20213;-78
2022/08/01 09:00:25;;;;;;;3.70;3.13;;;;;26.60;101296.00;;;;10458907;28;20224;-78
2022/08/01 09:05:27;;;;;;;3.10;2.90;;;;;26.30;101306.00;;;;10407083;28;20198;-78
2022/08/01 09:10:40;;;;;;;3.45;3.15;;;;;26.00;101305.00;;;;10439373;28;20213;-78
2022/08/01 09:15:57;;;;;;;3.00;2.80;;;;;27.20;101310.00;;;;10445244;28;20239;-78
2022/08/01 09:21:16;;;;;;;4.95;2.90;;;;;27.60;101303.00;;;;10478251;28;20254;-78
2022/08/01 09:26:20;;;;;;;2.78;2.40;;;;;27.70;101308.00;;;;10445807;28;20193;-78
2022/08/01 09:31:22;;;;;;;2.50;2.30;;;;;28.60;101312.00;;;;10442567;28;20676;-78
2022/08/01 09:36:27;;;;;;;2.97;2.22;;;;;29.40;101311.00;;;;10445860;28;20201;-78
2022/08/01 09:41:32;;;;;;;2.55;2.35;;;;;30.50;101308.00;;;;10421226;28;20269;-78
2022/08/01 09:46:55;;;;;;;2.05;1.95;;;;;30.40;101306.00;;;;10426178;28;20192;-78
2022/08/01 09:51:59;;;;;;;2.10;1.90;;;;;28.40;101322.00;;;;10461311;28;20219;-78
2022/08/01 09:57:10;;;;;;;2.85;2.60;;;;;26.90;101322.00;;;;10431478;28;20190;-78
2022/08/01 10:02:15;;;;;;;3.40;3.15;;;;;27.50;101323.00;;;;10441644;28;20228;-78
2022/08/01 10:07:18;;;;;;;4.45;3.10;;;;;27.50;101326.00;;;;10462164;28;20651;-78
2022/08/01 10:12:28;;;;;;;3.13;2.83;;;;;29.40;101316.00;;;;10447438;28;20209;-78
2022/08/01 10:17:34;;;;;;;2.80;2.58;;;;;31.30;101326.00;;;;10418878;28;20204;-78
2022/08/01 10:22:55;;;;;;;2.55;2.35;;;;;31.10;101329.00;;;;10430191;28;20426;-78
2022/08/01 10:28:00;;;;;;;2.35;2.15;;;;;29.60;101334.00;;;;10460584;28;20205;-78
2022/08/01 10:33:02;;;;;;;3.17;2.15;;;;;31.10;101319.00;;;;10480376;28;20271;-78
2022/08/01 10:38:06;;;;;;;1.70;1.60;;;;;32.70;101317.00;;;;10459663;28;20260;-78
2022/08/01 10:43:16;;;;;;;2.95;1.50;;;;;32.80;101317.00;;;;10450508;28;20200;-78
2022/08/01 10:48:46;;;;;;;1.08;0.80;;;;;31.20;101315.00;;;;10485167;28;20200;-79
2022/08/01 10:53:52;;;;;;;2.45;1.10;;;;;30.80;101316.00;;;;10438353;28;20229;-78
2022/08/01 10:59:02;;;;;;;2.05;1.38;;;;;31.40;101316.00;;;;10435155;28;20189;-78
2022/08/01 11:04:14;;;;;;;0.90;0.75;;;;;31.40;101319.00;;;;10501239;28;20284;-78
2022/08/01 11:09:58;;;;;;;0.77;0.73;;;;;31.60;101308.00;;;;10443476;28;20235;-78
2022/08/01 11:15:00;;;;;;;0.77;0.75;;;;;32.10;101306.00;;;;10418000;28;20230;-78
2022/08/01 11:20:10;;;;;;;2.67;0.90;;;;;31.30;101312.00;;;;10419690;28;20285;-78
2022/08/01 11:25:13;;;;;;;3.17;0.90;;;;;31.00;101306.00;;;;10450229;28;20196;-78
2022/08/01 11:30:15;;;;;;;1.15;0.80;;;;;31.20;101297.00;;;;10434062;28;20638;-78
2022/08/01 11:35:24;;;;;;;0.90;0.70;;;;;31.10;101301.00;;;;10499162;28;20196;-78
2022/08/01 11:40:28;;;;;;;1.80;0.80;;;;;31.80;101296.00;;;;10431046;28;20320;-78
2022/08/01 11:45:54;;;;;;;1.40;0.70;;;;;31.90;101297.00;;;;10427819;28;20186;-79
2022/08/01 11:50:57;;;;;;;1.60;0.80;;;;;31.00;101299.00;;;;10424815;28;20229;-78
2022/08/01 11:56:03;;;;;;;3.95;1.00;;;;;30.50;101289.00;;;;10423579;28;20197;-78
2022/08/01 12:01:06;;;;;;;1.48;0.75;;;;;32.30;101281.00;;;;10411161;28;20296;-78
2022/08/01 12:06:09;;;;;;;2.67;1.10;;;;;32.90;101279.00;;;;10440731;28;20202;-78
2022/08/01 12:11:12;;;;;;;2.17;1.05;;;;;33.40;101279.00;;;;10445784;28;20518;-78
2022/08/01 12:16:14;;;;;;;1.70;0.85;;;;;32.90;101269.00;;;;10464634;28;20572;-78
2022/08/01 12:21:17;;;;;;;2.40;0.90;;;;;32.70;101283.00;;;;10480778;28;20589;-79
2022/08/01 12:26:21;;;;;;;1.50;1.00;;;;;32.80;101281.00;;;;10456828;28;20272;-78
2022/08/01 12:31:34;;;;;;;1.15;0.80;;;;;32.50;101289.00;;;;10448928;28;20213;-78
2022/08/01 12:36:36;;;;;;;1.98;0.80;;;;;32.50;101288.00;;;;10441734;28;20186;-79
2022/08/01 12:41:42;;;;;;;1.45;0.70;;;;;32.00;101280.00;;;;10390266;28;20564;-78
2022/08/01 12:46:44;;;;;;;2.42;1.00;;;;;30.90;101283.00;;;;10418900;28;20202;-78
2022/08/01 12:51:46;;;;;;;4.13;0.90;;;;;30.80;101281.00;;;;10429666;28;20549;-78
2022/08/01 12:56:58;;;;;;;0.73;0.70;;;;;30.00;101273.00;;;;10463683;28;20193;-78
2022/08/01 13:02:08;;;;;;;0.70;0.70;;;;;31.00;101277.00;;;;10446203;28;20217;-78
2022/08/01 13:07:11;;;;;;;3.15;1.05;;;;;31.30;101281.00;;;;10462160;28;20189;-78
2022/08/01 13:12:13;;;;;;;2.55;1.15;;;;;31.70;101283.00;;;;10443703;28;20210;-77
2022/08/01 13:17:30;;;;;;;2.13;0.90;;;;;32.30;101278.00;;;;10446798;28;20341;-78
2022/08/01 13:22:33;;;;;;;1.58;0.85;;;;;33.10;101277.00;;;;10442146;28;20185;-78
2022/08/01 13:27:35;;;;;;;0.77;0.75;;;;;33.40;101272.00;;;;10462472;28;20186;-78
2022/08/01 13:32:40;;;;;;;3.90;3.60;;;;;32.90;101277.00;;;;10462214;28;20564;-78
2022/08/01 13:37:43;;;;;;;3.78;2.63;;;;;33.40;101270.00;;;;10423225;28;20191;-78
2022/08/01 13:42:45;;;;;;;2.42;1.10;;;;;34.50;101273.00;;;;10420243;28;20193;-78
2022/08/01 13:47:47;;;;;;;2.35;0.93;;;;;34.40;101281.00;;;;10442359;28;20557;-78
2022/08/01 13:53:09;;;;;;;1.88;1.02;;;;;35.10;101280.00;;;;10431377;28;20213;-78
2022/08/01 13:58:11;;;;;;;1.20;0.70;;;;;33.70;101279.00;;;;10423241;28;20649;-78
2022/08/01 14:03:13;;;;;;;1.65;1.10;;;;;30.70;101280.00;;;;10447030;28;20272;-78
2022/08/01 14:08:15;;;;;;;2.03;0.88;;;;;31.70;101268.00;;;;10426140;28;20289;-78
2022/08/01 14:13:18;;;;;;;2.40;1.05;;;;;32.90;101268.00;;;;10428835;28;20267;-78
2022/08/01 14:18:24;;;;;;;4.47;1.10;;;;;34.80;101260.00;;;;10463899;28;20235;-78
2022/08/01 14:23:26;;;;;;;1.70;1.10;;;;;36.50;101257.00;;;;10453388;28;20185;-78
2022/08/01 14:28:30;;;;;;;2.92;0.98;;;;;37.00;101260.00;;;;10452635;28;20668;-78
2022/08/01 14:33:32;;;;;;;0.55;0.55;;;;;35.70;101268.00;;;;10463217;28;20210;-78
2022/08/01 14:38:35;;;;;;;1.00;0.90;;;;;36.00;101262.00;;;;10437580;28;20190;-78
2022/08/01 14:43:38;;;;;;;1.10;0.80;;;;;37.30;101255.00;;;;10446714;28;20209;-78
2022/08/01 14:48:40;;;;;;;1.83;0.90;;;;;37.90;101252.00;;;;10457664;28;20281;-78
2022/08/01 14:53:42;;;;;;;2.70;0.73;;;;;37.70;101249.00;;;;10488538;28;20201;-78
2022/08/01 14:58:51;;;;;;;1.38;0.75;;;;;38.40;101249.00;;;;10467048;28;20560;-78
2022/08/01 15:03:53;;;;;;;2.33;0.80;;;;;37.60;101273.00;;;;10482775;28;20255;-78
2022/08/01 15:08:55;;;;;;;1.50;0.70;;;;;34.60;101253.00;;;;10442547;28;20205;-78
2022/08/01 15:19:18;;;;;;;1.42;0.75;;;;;34.90;101247.00;;;;10441936;28;20240;-78
2022/08/01 15:24:20;;;;;;;1.55;0.93;;;;;34.30;101242.00;;;;10409466;28;20204;-78
2022/08/01 15:29:22;;;;;;;3.65;0.82;;;;;34.20;101260.00;;;;10438335;28;20618;-78
2022/08/01 15:34:25;;;;;;;1.60;0.82;;;;;32.00;101268.00;;;;10425252;28;20214;-78
2022/08/01 15:39:29;;;;;;;1.70;0.82;;;;;32.70;101249.00;;;;10409110;28;20209;-78
2022/08/01 15:44:31;;;;;;;0.82;0.82;;;;;36.40;101248.00;;;;10423753;28;20186;-78
2022/08/01 15:49:35;;;;;;;3.40;0.70;;;;;36.00;101260.00;;;;10432672;28;20205;-77
2022/08/01 15:54:40;;;;;;;1.10;0.90;;;;;32.10;101265.00;;;;10465510;28;20218;-78
2022/08/01 15:59:44;;;;;;;1.08;0.82;;;;;29.00;101264.00;;;;10445909;28;20913;-77
2022/08/01 16:04:46;;;;;;;1.88;0.90;;;;;28.80;101251.00;;;;10456172;28;20240;-77
2022/08/01 16:09:48;;;;;;;2.15;0.75;;;;;27.90;101258.00;;;;10429733;28;20194;-77
2022/08/01 16:14:50;;;;;;;2.28;0.82;;;;;27.40;101254.00;;;;10442647;28;20256;-76
2022/08/01 16:19:52;;;;;;;1.52;0.90;;;;;27.20;101255.00;;;;10461747;28;20310;-77
2022/08/01 16:24:54;;;;;;;1.83;0.95;;;;;27.50;101241.00;;;;10446132;28;20194;-77
2022/08/01 16:30:01;;;;;;;1.65;0.90;;;;;27.20;101235.00;;;;10439967;28;20266;-77
2022/08/01 16:35:03;;;;;;;1.02;0.93;;;;;27.00;101231.00;;;;10443822;28;20213;-76
2022/08/01 16:40:06;;;;;;;2.60;1.00;;;;;26.70;101234.00;;;;10451934;28;20239;-77
2022/08/01 16:45:08;;;;;;;2.42;0.80;;;;;26.40;101237.00;;;;10445859;28;20219;-77
2022/08/01 16:50:15;;;;;;;1.25;0.82;;;;;26.40;101235.00;;;;10437525;28;20213;-77
2022/08/01 16:55:19;;;;;;;2.95;0.95;;;;;26.30;101231.00;;;;10446163;28;20209;-77
2022/08/01 17:00:24;;;;;;;2.97;1.15;;;;;26.20;101224.00;;;;10433133;28;20639;-77
2022/08/01 17:05:30;;;;;;;1.02;0.93;;;;;26.10;101230.00;;;;10480357;28;20186;-77
2022/08/01 17:10:32;;;;;;;2.38;1.08;;;;;26.10;101228.00;;;;10435037;28;20267;-78
2022/08/01 17:15:35;;;;;;;2.13;1.10;;;;;26.00;101238.00;;;;10464994;28;20240;-77
2022/08/01 17:20:39;;;;;;;2.58;0.98;;;;;25.90;101229.00;;;;10438714;28;20190;-77
2022/08/01 17:25:49;;;;;;;1.25;0.88;;;;;25.80;101228.00;;;;10453386;28;20193;-77
2022/08/01 17:30:51;;;;;;;2.40;1.10;;;;;25.50;101240.00;;;;10429307;28;20202;-77
2022/08/01 17:35:53;;;;;;;2.17;0.85;;;;;25.40;101236.00;;;;10413253;28;20214;-77
2022/08/01 17:40:56;;;;;;;2.30;1.13;;;;;25.40;101234.00;;;;10456897;28;20225;-77
2022/08/01 17:45:58;;;;;;;1.35;0.85;;;;;25.40;101238.00;;;;10450306;28;20192;-78
2022/08/01 17:51:00;;;;;;;0.95;0.88;;;;;25.30;101241.00;;;;10434430;28;20210;-77
2022/08/01 17:56:04;;;;;;;1.10;0.93;;;;;25.20;101241.00;;;;10457276;28;20220;-77
2022/08/01 18:01:07;;;;;;;2.10;1.10;;;;;25.10;101236.00;;;;10456041;28;20683;-77
2022/08/01 18:06:15;;;;;;;1.58;0.70;;;;;25.00;101239.00;;;;10445605;28;20216;-77
2022/08/01 18:11:18;;;;;;;0.80;0.80;;;;;24.90;101245.00;;;;10429303;28;20489;-77
2022/08/01 18:16:22;;;;;;;2.30;1.10;;;;;24.70;101237.00;;;;10427304;28;20269;-77
2022/08/01 18:21:24;;;;;;;1.50;0.95;;;;;24.60;101243.00;;;;10440756;28;20186;-77
2022/08/01 18:26:27;;;;;;;2.72;1.02;;;;;24.50;101252.00;;;;10460365;28;20186;-77
2022/08/01 18:31:29;;;;;;;1.95;1.00;;;;;24.40;101254.00;;;;10427275;28;20263;-77
2022/08/01 18:36:31;;;;;;;3.65;0.80;;;;;24.20;101255.00;;;;10475403;28;20200;-77
2022/08/01 18:41:36;;;;;;;2.05;0.80;;;;;24.00;101257.00;;;;10437738;28;20612;-77
2022/08/01 18:46:38;;;;;;;7.93;1.20;;;;;23.80;101248.00;;;;10449186;28;20243;-77
2022/08/01 18:51:40;;;;;;;1.55;1.05;;;;;23.60;101253.00;;;;10436488;28;20201;-77
2022/08/01 18:56:46;;;;;;;2.28;0.98;;;;;23.30;101257.00;;;;10449123;28;20625;-76
2022/08/01 19:01:48;;;;;;;3.17;1.10;;;;;23.00;101262.00;;;;10450148;28;20561;-77
2022/08/01 19:06:50;;;;;;;1.55;1.08;;;;;22.70;101264.00;;;;10459335;28;20285;-77
2022/08/01 19:11:53;;;;;;;3.90;1.10;;;;;22.40;101262.00;;;;10463886;28;20213;-76
2022/08/01 19:16:55;;;;;;;3.92;1.40;;;;;22.20;101271.00;;;;10438474;28;20201;-77
2022/08/01 19:21:57;;;;;;;2.88;1.08;;;;;22.00;101275.00;;;;10437476;28;20181;-77
2022/08/01 19:27:05;;;;;;;7.72;1.92;;;;;21.90;101280.00;;;;10456207;28;20296;-77
2022/08/01 19:32:10;;;;;;;4.30;1.38;;;;;21.60;101280.00;;;;10440408;28;20226;-76
2022/08/01 19:37:12;;;;;;;2.72;1.35;;;;;21.40;101285.00;;;;10457202;28;20198;-76
2022/08/01 19:42:14;;;;;;;3.80;1.95;;;;;21.20;101296.00;;;;10455744;28;20202;-77
2022/08/01 19:47:17;;;;;;;2.28;1.48;;;;;21.00;101297.00;;;;10425084;28;20309;-78
2022/08/01 19:52:24;;;;;;;2.28;1.40;;;;;20.90;101306.00;;;;10433476;28;20272;-78
2022/08/01 19:57:27;;;;;;;5.63;1.48;;;;;20.70;101308.00;;;;10427039;28;20197;-77
2022/08/01 20:02:49;;;;;;;6.47;1.70;;;;;20.70;101308.00;;;;10436351;28;20292;-77
2022/08/01 20:07:52;;;;;;;4.15;1.70;;;;;20.60;101305.00;;;;10422048;28;20202;-77
2022/08/01 20:12:55;;;;;;;2.33;1.23;;;;;20.50;101307.00;;;;10420836;28;20205;-77
2022/08/01 20:17:57;;;;;;;3.28;1.67;;;;;20.40;101305.00;;;;10437994;28;20189;-76
2022/08/01 20:23:01;;;;;;;6.93;1.67;;;;;20.40;101306.00;;;;10457312;28;20194;-78
2022/08/01 20:28:05;;;;;;;3.53;2.00;;;;;20.30;101312.00;;;;10444828;28;20202;-77
2022/08/01 20:33:09;;;;;;;4.60;2.20;;;;;20.20;101319.00;;;;10427611;28;20301;-77
2022/08/01 20:38:11;;;;;;;3.40;2.00;;;;;20.00;101320.00;;;;10436381;28;20288;-77
2022/08/01 20:43:19;;;;;;;5.85;2.08;;;;;20.00;101326.00;;;;10444876;28;20674;-76
2022/08/01 20:48:24;;;;;;;7.05;2.05;;;;;19.80;101321.00;;;;10432075;28;20198;-77
2022/08/01 20:53:26;;;;;;;5.90;1.77;;;;;19.70;101317.00;;;;10431828;28;20725;-78
2022/08/01 20:59:05;;;;;;;6.18;2.13;;;;;19.50;101330.00;;;;10461253;28;20214;-76
2022/08/01 21:04:07;;;;;;;3.95;1.80;;;;;19.40;101325.00;;;;10466179;28;20695;-77
2022/08/01 21:09:17;;;;;;;4.68;1.92;;;;;19.30;101329.00;;;;10459271;28;20202;-77
2022/08/01 21:14:20;;;;;;;3.22;2.10;;;;;19.20;101334.00;;;;10426221;28;20696;-77
2022/08/01 21:19:26;;;;;;;4.68;2.22;;;;;19.10;101337.00;;;;10450009;28;20193;-77
2022/08/01 21:24:45;;;;;;;3.63;1.88;;;;;19.10;101336.00;;;;10471880;28;20189;-76
2022/08/01 21:30:03;;;;;;;5.45;2.08;;;;;19.10;101346.00;;;;10453880;28;20204;-77
2022/08/01 21:35:05;;;;;;;2.60;2.20;;;;;19.00;101350.00;;;;10433527;28;20642;-77
2022/08/01 21:40:22;;;;;;;5.35;2.45;;;;;19.00;101340.00;;;;10440680;28;20549;-77
2022/08/01 21:45:26;;;;;;;3.70;2.47;;;;;18.90;101329.00;;;;10437570;28;20215;-78
2022/08/01 21:50:37;;;;;;;5.53;2.55;;;;;18.80;101327.00;;;;10447266;28;20197;-76
2022/08/01 21:55:52;;;;;;;5.60;2.35;;;;;18.80;101333.00;;;;10453480;28;20275;-77
2022/08/01 22:01:14;;;;;;;5.63;2.50;;;;;18.80;101337.00;;;;10453181;28;20212;-78
2022/08/01 22:06:19;;;;;;;6.43;2.60;;;;;18.80;101343.00;;;;10441379;28;20738;-77
2022/08/01 22:11:28;;;;;;;5.80;2.55;;;;;18.80;101330.00;;;;10433531;28;20679;-77
2022/08/01 22:16:32;;;;;;;9.50;2.55;;;;;18.80;101330.00;;;;10435537;28;20194;-77
2022/08/01 22:21:37;;;;;;;4.22;2.53;;;;;18.80;101332.00;;;;10444628;28;20190;-77
2022/08/01 22:26:41;;;;;;;6.35;2.65;;;;;18.80;101335.00;;;;10445586;28;20186;-77
2022/08/01 22:31:44;;;;;;;4.78;2.38;;;;;18.90;101326.00;;;;10480468;28;20194;-77
2022/08/01 22:36:46;;;;;;;4.65;2.30;;;;;18.90;101330.00;;;;10465704;28;20668;-76
2022/08/01 22:41:59;;;;;;;5.43;2.38;;;;;18.90;101328.00;;;;10425063;28;20244;-77
2022/08/01 22:47:07;;;;;;;11.25;2.80;;;;;18.80;101339.00;;;;10481145;28;20287;-77
2022/08/01 22:52:18;;;;;;;5.30;2.22;;;;;18.70;101338.00;;;;10467315;28;20233;-77
2022/08/01 22:57:32;;;;;;;6.05;2.83;;;;;18.70;101334.00;;;;10445762;28;20189;-77
2022/08/01 23:02:53;;;;;;;6.82;2.67;;;;;18.70;101335.00;;;;10484956;28;20218;-77
2022/08/01 23:07:57;;;;;;;5.78;2.28;;;;;18.70;101328.00;;;;10433079;28;20620;-77
2022/08/01 23:13:00;;;;;;;5.10;2.78;;;;;18.60;101331.00;;;;10441171;28;20202;-77
2022/08/01 23:18:03;;;;;;;3.80;2.30;;;;;18.40;101332.00;;;;10447107;28;20208;-77
2022/08/01 23:23:06;;;;;;;6.45;2.42;;;;;18.30;101338.00;;;;10432231;28;20585;-77
2022/08/01 23:28:09;;;;;;;5.18;2.63;;;;;18.20;101337.00;;;;10429491;28;20276;-78
2022/08/01 23:33:11;;;;;;;6.57;2.28;;;;;18.10;101338.00;;;;10459719;28;20248;-77
2022/08/01 23:38:17;;;;;;;4.88;2.15;;;;;18.00;101325.00;;;;10441206;28;20277;-77
2022/08/01 23:43:19;;;;;;;6.53;2.53;;;;;18.10;101320.00;;;;10426189;28;20190;-77
2022/08/01 23:48:21;;;;;;;6.15;2.90;;;;;18.00;101320.00;;;;10446466;28;20198;-77
2022/08/01 23:53:24;;;;;;;7.60;2.80;;;;;18.00;101318.00;;;;10449784;28;20631;-77
2022/08/01 23:58:32;;;;;;;4.85;2.53;;;;;17.90;101320.00;;;;10463565;28;20186;-78
